sensor_id;sensor_type;location;lat;lon;timestamp;pressure;altitude;pressure_sealevel;temperature;humidity
12868;BME280;33517;49.866;8.320;2023-01-06T00:01:59;100997.69;;;11.34;100.00
12868;BME280;33517;49.866;8.320;2023-01-06T00:04:53;101001.44;;;11.32;99.62
12868;BME280;33517;49.866;8.320;2023-01-06T00:07:47;100993.56;;;11.32;100.00
12868;BME280;33517;49.866;8.320;2023-01-06T00:10:39;100998.81;;;11.32;100.00
12868;BME280;33517;49.866;8.320;2023-01-06T00:13:31;100990.56;;;11.27;99.36
12868;BME280;33517;49.866;8.320;2023-01-06T00:16:23;100992.31;;;11.18;99.47
12868;BME280;33517;49.866;8.320;2023-01-06T00:19:15;100987.38;;;11.15;100.00
12868;BME280;33517;49.866;8.320;2023-01-06T00:22:08;100991.13;;;11.12;100.00
12868;BME280;33517;49.866;8.320;2023-01-06T00:25:00;101000.06;;;11.20;100.00
12868;BME280;33517;49.866;8.320;2023-01-06T00:27:53;100987.56;;;11.22;100.00
12868;BME280;33517;49.866;8.320;2023-01-06T00:30:46;100985.59;;;11.24;100.00
12868;BME280;33517;49.866;8.320;2023-01-06T00:33:38;100985.34;;;11.35;100.00
12868;BME280;33517;49.866;8.320;2023-01-06T00:36:30;100986.47;;;11.32;100.00
12868;BME280;33517;49.866;8.320;2023-01-06T00:39:23;100983.53;;;11.35;100.00
12868;BME280;33517;49.866;8.320;2023-01-06T00:42:15;100979.75;;;11.38;100.00
12868;BME280;33517;49.866;8.320;2023-01-06T00:45:08;100977.63;;;11.41;100.00
12868;BME280;33517;49.866;8.320;2023-01-06T00:47:59;100973.50;;;11.39;100.00
12868;BME280;33517;49.866;8.320;2023-01-06T00:50:58;100963.59;;;11.33;100.00
12868;BME280;33517;49.866;8.320;2023-01-06T00:53:50;100965.25;;;11.34;100.00
12868;BME280;33517;49.866;8.320;2023-01-06T00:56:44;100958.94;;;11.27;100.00
12868;BME280;33517;49.866;8.320;2023-01-06T00:59:37;100962.72;;;11.24;100.00
12868;BME280;33517;49.866;8.320;2023-01-06T01:02:29;100964.69;;;11.22;100.00
12868;BME280;33517;49.866;8.320;2023-01-06T01:05:20;100963.81;;;11.13;100.00
12868;BME280;33517;49.866;8.320;2023-01-06T01:08:12;100962.66;;;11.16;100.00
12868;BME280;33517;49.866;8.320;2023-01-06T01:11:05;100958.72;;;11.20;100.00
12868;BME280;33517;49.866;8.320;2023-01-06T01:13:59;100953.97;;;11.24;100.00
12868;BME280;33517;49.866;8.320;2023-01-06T01:16:51;100953.97;;;11.24;100.00
12868;BME280;33517;49.866;8.320;2023-01-06T01:19:42;100941.97;;;11.21;100.00
12868;BME280;33517;49.866;8.320;2023-01-06T01:22:34;100947.59;;;11.26;100.00
12868;BME280;33517;49.866;8.320;2023-01-06T01:25:26;100955.16;;;11.29;100.00
12868;BME280;33517;49.866;8.320;2023-01-06T01:28:18;100955.81;;;11.31;100.00
12868;BME280;33517;49.866;8.320;2023-01-06T01:31:11;100957.84;;;11.37;100.00
12868;BME280;33517;49.866;8.320;2023-01-06T01:34:06;100962.66;;;11.42;100.00
12868;BME280;33517;49.866;8.320;2023-01-06T01:36:58;100964.00;;;11.46;100.00
12868;BME280;33517;49.866;8.320;2023-01-06T01:39:49;100963.66;;;11.49;100.00
12868;BME280;33517;49.866;8.320;2023-01-06T01:42:41;100963.66;;;11.49;100.00
12868;BME280;33517;49.866;8.320;2023-01-06T01:45:33;100971.56;;;11.49;100.00
12868;BME280;33517;49.866;8.320;2023-01-06T01:48:28;100965.13;;;11.43;100.00
12868;BME280;33517;49.866;8.320;2023-01-06T01:51:29;100962.31;;;11.37;100.00
12868;BME280;33517;49.866;8.320;2023-01-06T01:54:25;100964.50;;;11.49;100.00
12868;BME280;33517;49.866;8.320;2023-01-06T01:57:23;100964.38;;;11.59;100.00
12868;BME280;33517;49.866;8.320;2023-01-06T02:00:17;100963.75;;;11.65;100.00
12868;BME280;33517;49.866;8.320;2023-01-06T02:03:11;100969.91;;;11.65;100.00
12868;BME280;33517;49.866;8.320;2023-01-06T02:06:10;100969.56;;;11.68;100.00
12868;BME280;33517;49.866;8.320;2023-01-06T02:09:08;100970.22;;;11.70;100.00
12868;BME280;33517;49.866;8.320;2023-01-06T02:12:02;100970.75;;;11.74;100.00
12868;BME280;33517;49.866;8.320;2023-01-06T02:14:54;100967.59;;;11.70;100.00
12868;BME280;33517;49.866;8.320;2023-01-06T02:18:01;100968.44;;;11.71;100.00
12868;BME280;33517;49.866;8.320;2023-01-06T02:21:07;100963.09;;;11.63;100.00
12868;BME280;33517;49.866;8.320;2023-01-06T02:27:35;100963.75;;;11.65;100.00
12868;BME280;33517;49.866;8.320;2023-01-06T02:30:44;100962.00;;;11.65;100.00
12868;BME280;33517;49.866;8.320;2023-01-06T02:33:49;100975.97;;;11.66;100.00
12868;BME280;33517;49.866;8.320;2023-01-06T02:36:48;100982.63;;;11.78;100.00
12868;BME280;33517;49.866;8.320;2023-01-06T02:40:05;100969.09;;;11.81;100.00
12868;BME280;33517;49.866;8.320;2023-01-06T02:43:08;100965.00;;;11.78;100.00
12868;BME280;33517;49.866;8.320;2023-01-06T02:46:08;100962.19;;;11.80;100.00
12868;BME280;33517;49.866;8.320;2023-01-06T02:49:11;100955.63;;;11.84;100.00
12868;BME280;33517;49.866;8.320;2023-01-06T02:52:08;100936.03;;;11.86;100.00
12868;BME280;33517;49.866;8.320;2023-01-06T02:55:06;100932.72;;;11.84;100.00
12868;BME280;33517;49.866;8.320;2023-01-06T02:58:02;100928.41;;;11.83;100.00
12868;BME280;33517;49.866;8.320;2023-01-06T03:00:59;100925.44;;;11.78;100.00
12868;BME280;33517;49.866;8.320;2023-01-06T03:03:54;100914.88;;;11.70;100.00
12868;BME280;33517;49.866;8.320;2023-01-06T03:06:52;100916.00;;;11.68;100.00
12868;BME280;33517;49.866;8.320;2023-01-06T03:09:46;100926.19;;;11.63;100.00
12868;BME280;33517;49.866;8.320;2023-01-06T03:12:46;100920.38;;;11.51;100.00
12868;BME280;33517;49.866;8.320;2023-01-06T03:15:40;100921.13;;;11.36;100.00
12868;BME280;33517;49.866;8.320;2023-01-06T03:18:32;100927.13;;;11.20;100.00
12868;BME280;33517;49.866;8.320;2023-01-06T03:21:29;100928.78;;;10.95;100.00
12868;BME280;33517;49.866;8.320;2023-01-06T03:24:24;100940.34;;;10.77;100.00
12868;BME280;33517;49.866;8.320;2023-01-06T03:27:19;100938.47;;;10.69;100.00
12868;BME280;33517;49.866;8.320;2023-01-06T03:30:14;100937.50;;;10.70;100.00
12868;BME280;33517;49.866;8.320;2023-01-06T03:33:12;100931.78;;;10.75;100.00
12868;BME280;33517;49.866;8.320;2023-01-06T03:36:18;100933.28;;;10.77;100.00
12868;BME280;33517;49.866;8.320;2023-01-06T03:39:17;100935.28;;;10.83;100.00
12868;BME280;33517;49.866;8.320;2023-01-06T03:42:20;100931.75;;;10.92;100.00
12868;BME280;33517;49.866;8.320;2023-01-06T03:45:39;100928.34;;;11.00;100.00
12868;BME280;33517;49.866;8.320;2023-01-06T03:48:44;100928.53;;;11.06;100.00
12868;BME280;33517;49.866;8.320;2023-01-06T03:51:45;100919.16;;;11.12;100.00
12868;BME280;33517;49.866;8.320;2023-01-06T03:54:41;100918.72;;;11.17;100.00
12868;BME280;33517;49.866;8.320;2023-01-06T03:57:42;100917.44;;;11.21;100.00
12868;BME280;33517;49.866;8.320;2023-01-06T04:00:35;100918.94;;;11.23;100.00
12868;BME280;33517;49.866;8.320;2023-01-06T04:03:28;100920.44;;;11.34;100.00
12868;BME280;33517;49.866;8.320;2023-01-06T04:06:20;100911.59;;;11.43;100.00
12868;BME280;33517;49.866;8.320;2023-01-06T04:09:12;100920.22;;;11.53;100.00
12868;BME280;33517;49.866;8.320;2023-01-06T04:12:04;100916.72;;;11.52;100.00
12868;BME280;33517;49.866;8.320;2023-01-06T04:15:16;100912.25;;;11.45;99.43
12868;BME280;33517;49.866;8.320;2023-01-06T04:18:08;100904.69;;;11.42;99.46
12868;BME280;33517;49.866;8.320;2023-01-06T04:21:00;100912.47;;;11.51;100.00
12868;BME280;33517;49.866;8.320;2023-01-06T04:23:52;100907.88;;;11.53;99.54
12868;BME280;33517;49.866;8.320;2023-01-06T04:26:44;100905.03;;;11.47;98.15
12868;BME280;33517;49.866;8.320;2023-01-06T04:29:35;100904.88;;;11.48;98.54
12868;BME280;33517;49.866;8.320;2023-01-06T04:32:29;100905.38;;;11.52;99.19
12868;BME280;33517;49.866;8.320;2023-01-06T04:35:20;100907.69;;;11.55;98.58
12868;BME280;33517;49.866;8.320;2023-01-06T04:38:12;100906.19;;;11.52;98.76
12868;BME280;33517;49.866;8.320;2023-01-06T04:41:04;100903.72;;;11.51;98.81
12868;BME280;33517;49.866;8.320;2023-01-06T04:43:56;100902.56;;;11.45;98.36
12868;BME280;33517;49.866;8.320;2023-01-06T04:46:48;100903.22;;;11.47;97.92
12868;BME280;33517;49.866;8.320;2023-01-06T04:49:41;100890.22;;;11.46;97.81
12868;BME280;33517;49.866;8.320;2023-01-06T04:52:33;100894.00;;;11.51;97.12
12868;BME280;33517;49.866;8.320;2023-01-06T04:55:25;100895.16;;;11.49;96.23
12868;BME280;33517;49.866;8.320;2023-01-06T04:58:17;100899.63;;;11.56;95.80
12868;BME280;33517;49.866;8.320;2023-01-06T05:01:10;100900.00;;;11.61;95.93
12868;BME280;33517;49.866;8.320;2023-01-06T05:04:03;100902.47;;;11.63;94.97
12868;BME280;33517;49.866;8.320;2023-01-06T05:06:57;100907.44;;;11.66;95.89
12868;BME280;33517;49.866;8.320;2023-01-06T05:09:48;100902.81;;;11.68;95.31
12868;BME280;33517;49.866;8.320;2023-01-06T05:12:40;100912.91;;;11.72;95.36
12868;BME280;33517;49.866;8.320;2023-01-06T05:15:32;100906.28;;;11.68;95.28
12868;BME280;33517;49.866;8.320;2023-01-06T05:18:24;100903.28;;;11.63;95.40
12868;BME280;33517;49.866;8.320;2023-01-06T05:21:16;100902.03;;;11.67;95.33
12868;BME280;33517;49.866;8.320;2023-01-06T05:24:10;100892.22;;;11.60;95.03
12868;BME280;33517;49.866;8.320;2023-01-06T05:27:02;100907.00;;;11.45;95.84
12868;BME280;33517;49.866;8.320;2023-01-06T05:29:53;100916.19;;;11.41;95.17
12868;BME280;33517;49.866;8.320;2023-01-06T05:32:45;100914.72;;;11.38;95.24
12868;BME280;33517;49.866;8.320;2023-01-06T05:35:37;100911.56;;;11.35;95.34
12868;BME280;33517;49.866;8.320;2023-01-06T05:38:29;100909.88;;;11.26;95.13
12868;BME280;33517;49.866;8.320;2023-01-06T05:41:22;100908.56;;;11.30;95.11
12868;BME280;33517;49.866;8.320;2023-01-06T05:44:14;100915.63;;;11.29;95.19
12868;BME280;33517;49.866;8.320;2023-01-06T05:47:06;100912.88;;;11.31;94.84
12868;BME280;33517;49.866;8.320;2023-01-06T05:49:58;100917.47;;;11.29;95.41
12868;BME280;33517;49.866;8.320;2023-01-06T05:52:49;100927.53;;;11.33;94.64
12868;BME280;33517;49.866;8.320;2023-01-06T05:55:41;100925.38;;;11.29;95.35
12868;BME280;33517;49.866;8.320;2023-01-06T05:58:35;100919.44;;;11.27;95.10
12868;BME280;33517;49.866;8.320;2023-01-06T06:01:30;100930.94;;;11.26;95.64
12868;BME280;33517;49.866;8.320;2023-01-06T06:04:22;100919.06;;;11.22;95.12
12868;BME280;33517;49.866;8.320;2023-01-06T06:07:14;100915.72;;;11.11;95.68
12868;BME280;33517;49.866;8.320;2023-01-06T06:10:07;100909.75;;;11.01;96.29
12868;BME280;33517;49.866;8.320;2023-01-06T06:12:59;100917.59;;;10.93;97.92
12868;BME280;33517;49.866;8.320;2023-01-06T06:16:02;100925.31;;;10.95;97.35
12868;BME280;33517;49.866;8.320;2023-01-06T06:18:55;100937.03;;;11.00;97.75
12868;BME280;33517;49.866;8.320;2023-01-06T06:21:48;100927.06;;;11.04;97.35
12868;BME280;33517;49.866;8.320;2023-01-06T06:24:39;100903.69;;;10.83;98.09
12868;BME280;33517;49.866;8.320;2023-01-06T06:27:31;100908.75;;;10.77;99.18
12868;BME280;33517;49.866;8.320;2023-01-06T06:30:23;100912.22;;;10.77;99.37
12868;BME280;33517;49.866;8.320;2023-01-06T06:33:17;100914.44;;;10.90;99.28
12868;BME280;33517;49.866;8.320;2023-01-06T06:36:09;100919.03;;;10.88;98.98
12868;BME280;33517;49.866;8.320;2023-01-06T06:39:05;100913.78;;;10.88;99.36
12868;BME280;33517;49.866;8.320;2023-01-06T06:41:57;100912.81;;;10.89;98.97
12868;BME280;33517;49.866;8.320;2023-01-06T06:44:49;100911.34;;;10.94;99.00
12868;BME280;33517;49.866;8.320;2023-01-06T06:47:40;100927.56;;;11.07;98.01
12868;BME280;33517;49.866;8.320;2023-01-06T06:50:33;100933.34;;;11.11;97.41
12868;BME280;33517;49.866;8.320;2023-01-06T06:53:26;100923.47;;;11.13;97.80
12868;BME280;33517;49.866;8.320;2023-01-06T06:56:19;100929.78;;;10.94;97.14
12868;BME280;33517;49.866;8.320;2023-01-06T06:59:11;100927.53;;;10.82;97.49
12868;BME280;33517;49.866;8.320;2023-01-06T07:02:02;100929.06;;;10.84;98.44
12868;BME280;33517;49.866;8.320;2023-01-06T07:04:55;100929.00;;;10.76;97.70
12868;BME280;33517;49.866;8.320;2023-01-06T07:07:48;100932.28;;;10.78;98.17
12868;BME280;33517;49.866;8.320;2023-01-06T07:10:40;100935.94;;;10.85;98.26
12868;BME280;33517;49.866;8.320;2023-01-06T07:13:32;100935.81;;;10.87;97.42
12868;BME280;33517;49.866;8.320;2023-01-06T07:16:24;100940.78;;;10.90;96.81
12868;BME280;33517;49.866;8.320;2023-01-06T07:19:16;100940.25;;;10.86;97.38
12868;BME280;33517;49.866;8.320;2023-01-06T07:22:08;100935.81;;;10.87;97.24
12868;BME280;33517;49.866;8.320;2023-01-06T07:25:01;100942.28;;;10.92;96.95
12868;BME280;33517;49.866;8.320;2023-01-06T07:27:53;100939.31;;;10.95;97.03
12868;BME280;33517;49.866;8.320;2023-01-06T07:30:45;100933.47;;;10.84;97.09
12868;BME280;33517;49.866;8.320;2023-01-06T07:33:37;100939.69;;;10.75;97.50
12868;BME280;33517;49.866;8.320;2023-01-06T07:36:29;100935.91;;;10.77;98.16
12868;BME280;33517;49.866;8.320;2023-01-06T07:39:21;100938.41;;;10.79;97.24
12868;BME280;33517;49.866;8.320;2023-01-06T07:42:14;100931.78;;;10.75;96.83
12868;BME280;33517;49.866;8.320;2023-01-06T07:45:07;100934.59;;;10.81;96.37
12868;BME280;33517;49.866;8.320;2023-01-06T07:47:59;100930.59;;;10.95;96.26
12868;BME280;33517;49.866;8.320;2023-01-06T07:50:51;100937.16;;;10.91;95.36
12868;BME280;33517;49.866;8.320;2023-01-06T07:53:43;100936.69;;;10.95;94.44
12868;BME280;33517;49.866;8.320;2023-01-06T07:56:34;100936.06;;;11.01;93.56
12868;BME280;33517;49.866;8.320;2023-01-06T07:59:28;100949.56;;;10.98;92.33
12868;BME280;33517;49.866;8.320;2023-01-06T08:02:19;100946.25;;;10.96;92.59
12868;BME280;33517;49.866;8.320;2023-01-06T08:05:11;100950.03;;;10.94;91.70
12868;BME280;33517;49.866;8.320;2023-01-06T08:08:03;100954.84;;;10.98;92.06
12868;BME280;33517;49.866;8.320;2023-01-06T08:10:56;100949.81;;;11.13;91.10
12868;BME280;33517;49.866;8.320;2023-01-06T08:13:48;100948.38;;;11.19;89.61
12868;BME280;33517;49.866;8.320;2023-01-06T08:16:41;100949.53;;;11.24;88.65
12868;BME280;33517;49.866;8.320;2023-01-06T08:19:34;100956.50;;;11.33;89.38
12868;BME280;33517;49.866;8.320;2023-01-06T08:22:26;100950.72;;;11.30;88.91
12868;BME280;33517;49.866;8.320;2023-01-06T08:25:18;100957.66;;;11.31;88.62
12868;BME280;33517;49.866;8.320;2023-01-06T08:28:09;100968.38;;;11.37;88.26
12868;BME280;33517;49.866;8.320;2023-01-06T08:31:01;100959.69;;;11.37;87.89
12868;BME280;33517;49.866;8.320;2023-01-06T08:33:55;100961.16;;;11.39;88.04
12868;BME280;33517;49.866;8.320;2023-01-06T08:36:47;100953.44;;;11.46;87.75
12868;BME280;33517;49.866;8.320;2023-01-06T08:39:38;100955.81;;;11.57;86.80
12868;BME280;33517;49.866;8.320;2023-01-06T08:42:30;100942.84;;;11.63;86.66
12868;BME280;33517;49.866;8.320;2023-01-06T08:45:22;100941.69;;;11.66;86.23
12868;BME280;33517;49.866;8.320;2023-01-06T08:48:14;100940.72;;;11.67;85.66
12868;BME280;33517;49.866;8.320;2023-01-06T08:51:10;100943.19;;;11.68;85.85
12868;BME280;33517;49.866;8.320;2023-01-06T08:54:02;100937.59;;;11.71;85.12
12868;BME280;33517;49.866;8.320;2023-01-06T08:56:55;100940.09;;;11.73;84.54
12868;BME280;33517;49.866;8.320;2023-01-06T08:59:47;100949.81;;;11.72;83.63
12868;BME280;33517;49.866;8.320;2023-01-06T09:02:39;100956.72;;;11.73;83.97
12868;BME280;33517;49.866;8.320;2023-01-06T09:05:31;100957.06;;;11.70;84.18
12868;BME280;33517;49.866;8.320;2023-01-06T09:08:24;100952.13;;;11.75;84.43
12868;BME280;33517;49.866;8.320;2023-01-06T09:11:16;100949.34;;;11.77;84.29
12868;BME280;33517;49.866;8.320;2023-01-06T09:14:08;100964.53;;;11.91;83.87
12868;BME280;33517;49.866;8.320;2023-01-06T09:17:00;100964.66;;;11.81;83.07
12868;BME280;33517;49.866;8.320;2023-01-06T09:19:52;100961.53;;;11.78;82.96
12868;BME280;33517;49.866;8.320;2023-01-06T09:22:44;100965.50;;;11.82;83.11
12868;BME280;33517;49.866;8.320;2023-01-06T09:25:37;100962.59;;;12.01;83.12
12868;BME280;33517;49.866;8.320;2023-01-06T09:28:31;100967.56;;;12.12;83.29
12868;BME280;33517;49.866;8.320;2023-01-06T09:31:22;100966.72;;;12.03;82.54
12868;BME280;33517;49.866;8.320;2023-01-06T09:34:16;100984.34;;;11.95;82.51
12868;BME280;33517;49.866;8.320;2023-01-06T09:37:08;101002.59;;;11.88;82.68
12868;BME280;33517;49.866;8.320;2023-01-06T09:39:59;100988.63;;;11.96;83.15
12868;BME280;33517;49.866;8.320;2023-01-06T09:43:01;100997.19;;;11.98;82.72
12868;BME280;33517;49.866;8.320;2023-01-06T09:45:57;100998.06;;;12.07;83.18
12868;BME280;33517;49.866;8.320;2023-01-06T09:48:56;100988.19;;;12.17;82.45
12868;BME280;33517;49.866;8.320;2023-01-06T09:51:51;100987.03;;;12.19;81.90
12868;BME280;33517;49.866;8.320;2023-01-06T09:54:51;100991.16;;;12.22;81.66
12868;BME280;33517;49.866;8.320;2023-01-06T09:57:46;100983.28;;;12.38;81.19
12868;BME280;33517;49.866;8.320;2023-01-06T10:00:43;100982.59;;;12.20;81.13
12868;BME280;33517;49.866;8.320;2023-01-06T10:03:35;100987.06;;;12.35;80.22
12868;BME280;33517;49.866;8.320;2023-01-06T10:06:32;100999.66;;;12.49;80.58
12868;BME280;33517;49.866;8.320;2023-01-06T10:09:31;100995.19;;;12.66;78.70
12868;BME280;33517;49.866;8.320;2023-01-06T10:12:42;100999.69;;;12.89;78.71
12868;BME280;33517;49.866;8.320;2023-01-06T10:15:43;101000.00;;;13.03;79.10
12868;BME280;33517;49.866;8.320;2023-01-06T10:18:42;101001.16;;;13.24;78.09
12868;BME280;33517;49.866;8.320;2023-01-06T10:21:43;100996.19;;;13.37;77.35
12868;BME280;33517;49.866;8.320;2023-01-06T10:24:47;100997.50;;;13.33;76.92
12868;BME280;33517;49.866;8.320;2023-01-06T10:27:48;100983.75;;;13.38;77.36
12868;BME280;33517;49.866;8.320;2023-01-06T10:30:45;100988.38;;;13.52;77.55
12868;BME280;33517;49.866;8.320;2023-01-06T10:33:42;100989.19;;;13.52;76.06
12868;BME280;33517;49.866;8.320;2023-01-06T10:36:39;100982.38;;;13.66;76.15
12868;BME280;33517;49.866;8.320;2023-01-06T10:39:34;100991.72;;;13.84;75.63
12868;BME280;33517;49.866;8.320;2023-01-06T10:42:32;100977.88;;;13.66;75.07
12868;BME280;33517;49.866;8.320;2023-01-06T10:45:48;100988.28;;;13.76;75.67
12868;BME280;33517;49.866;8.320;2023-01-06T10:48:41;100990.88;;;13.84;75.90
12868;BME280;33517;49.866;8.320;2023-01-06T10:51:36;100980.88;;;13.71;75.09
12868;BME280;33517;49.866;8.320;2023-01-06T10:54:32;100979.84;;;13.72;75.61
12868;BME280;33517;49.866;8.320;2023-01-06T10:57:26;100967.34;;;13.97;74.87
12868;BME280;33517;49.866;8.320;2023-01-06T11:00:23;100969.03;;;14.21;74.44
12868;BME280;33517;49.866;8.320;2023-01-06T11:03:19;100961.56;;;14.32;74.07
12868;BME280;33517;49.866;8.320;2023-01-06T11:06:15;100956.59;;;15.12;73.48
12868;BME280;33517;49.866;8.320;2023-01-06T11:09:22;100937.31;;;16.33;68.87
12868;BME280;33517;49.866;8.320;2023-01-06T11:12:18;100932.41;;;17.00;65.33
12868;BME280;33517;49.866;8.320;2023-01-06T11:15:18;100934.78;;;17.16;63.22
12868;BME280;33517;49.866;8.320;2023-01-06T11:18:23;100946.91;;;17.25;62.80
12868;BME280;33517;49.866;8.320;2023-01-06T11:21:16;100949.78;;;17.58;62.03
12868;BME280;33517;49.866;8.320;2023-01-06T11:24:15;100948.91;;;17.91;62.80
12868;BME280;33517;49.866;8.320;2023-01-06T11:27:14;100950.63;;;17.65;61.94
12868;BME280;33517;49.866;8.320;2023-01-06T11:30:19;100943.31;;;17.73;63.26
12868;BME280;33517;49.866;8.320;2023-01-06T11:33:14;100926.53;;;17.86;60.33
12868;BME280;33517;49.866;8.320;2023-01-06T11:36:10;100934.72;;;17.78;61.25
12868;BME280;33517;49.866;8.320;2023-01-06T11:39:12;100928.28;;;17.25;60.65
12868;BME280;33517;49.866;8.320;2023-01-06T11:42:10;100935.31;;;16.56;63.01
12868;BME280;33517;49.866;8.320;2023-01-06T11:45:04;100942.63;;;15.61;65.23
12868;BME280;33517;49.866;8.320;2023-01-06T11:47:56;100941.59;;;15.19;67.00
12868;BME280;33517;49.866;8.320;2023-01-06T11:50:50;100940.91;;;14.88;68.09
12868;BME280;33517;49.866;8.320;2023-01-06T11:53:55;100932.88;;;14.58;69.41
12868;BME280;33517;49.866;8.320;2023-01-06T11:56:56;100932.56;;;14.39;70.06
12868;BME280;33517;49.866;8.320;2023-01-06T12:00:18;100924.00;;;14.29;70.83
12868;BME280;33517;49.866;8.320;2023-01-06T12:03:18;100924.50;;;14.02;71.43
12868;BME280;33517;49.866;8.320;2023-01-06T12:06:23;100923.81;;;13.77;72.40
12868;BME280;33517;49.866;8.320;2023-01-06T12:09:24;100922.31;;;13.74;73.33
12868;BME280;33517;49.866;8.320;2023-01-06T12:12:20;100914.63;;;13.57;73.80
12868;BME280;33517;49.866;8.320;2023-01-06T12:15:14;100903.94;;;13.50;73.78
12868;BME280;33517;49.866;8.320;2023-01-06T12:18:11;100906.28;;;13.45;74.59
12868;BME280;33517;49.866;8.320;2023-01-06T12:21:04;100902.00;;;13.36;74.61
12868;BME280;33517;49.866;8.320;2023-01-06T12:23:59;100900.22;;;13.21;75.42
12868;BME280;33517;49.866;8.320;2023-01-06T12:26:54;100897.63;;;13.05;76.18
12868;BME280;33517;49.866;8.320;2023-01-06T12:29:48;100890.00;;;13.02;76.66
12868;BME280;33517;49.866;8.320;2023-01-06T12:32:44;100888.56;;;12.91;76.28
12868;BME280;33517;49.866;8.320;2023-01-06T12:35:40;100888.56;;;12.83;77.20
12868;BME280;33517;49.866;8.320;2023-01-06T12:38:41;100893.00;;;12.82;77.17
12868;BME280;33517;49.866;8.320;2023-01-06T12:41:40;100892.03;;;12.75;78.37
12868;BME280;33517;49.866;8.320;2023-01-06T12:44:40;100889.56;;;12.82;78.03
12868;BME280;33517;49.866;8.320;2023-01-06T12:47:36;100885.09;;;12.82;78.57
12868;BME280;33517;49.866;8.320;2023-01-06T12:50:34;100876.69;;;12.79;78.12
12868;BME280;33517;49.866;8.320;2023-01-06T12:53:30;100877.34;;;12.73;78.24
12868;BME280;33517;49.866;8.320;2023-01-06T12:56:51;100873.09;;;12.64;77.77
12868;BME280;33517;49.866;8.320;2023-01-06T13:00:13;100877.03;;;12.52;78.59
12868;BME280;33517;49.866;8.320;2023-01-06T13:03:24;100878.53;;;12.54;78.25
12868;BME280;33517;49.866;8.320;2023-01-06T13:06:28;100875.06;;;12.62;78.49
12868;BME280;33517;49.866;8.320;2023-01-06T13:09:33;100874.03;;;12.79;78.40
12868;BME280;33517;49.866;8.320;2023-01-06T13:12:46;100874.16;;;13.02;78.10
12868;BME280;33517;49.866;8.320;2023-01-06T13:15:44;100855.28;;;13.21;77.98
12868;BME280;33517;49.866;8.320;2023-01-06T13:18:41;100871.50;;;13.18;77.32
12868;BME280;33517;49.866;8.320;2023-01-06T13:21:38;100861.31;;;13.07;77.45
12868;BME280;33517;49.866;8.320;2023-01-06T13:24:45;100870.84;;;12.99;77.08
12868;BME280;33517;49.866;8.320;2023-01-06T13:27:59;100867.25;;;12.92;77.46
12868;BME280;33517;49.866;8.320;2023-01-06T13:31:13;100865.94;;;12.88;78.07
12868;BME280;33517;49.866;8.320;2023-01-06T13:34:33;100854.53;;;12.96;77.92
12868;BME280;33517;49.866;8.320;2023-01-06T13:37:34;100856.19;;;13.74;76.89
12868;BME280;33517;49.866;8.320;2023-01-06T13:40:28;100851.81;;;14.87;73.71
12868;BME280;33517;49.866;8.320;2023-01-06T13:43:23;100866.63;;;15.25;70.96
12868;BME280;33517;49.866;8.320;2023-01-06T13:46:18;100870.03;;;15.04;70.48
12868;BME280;33517;49.866;8.320;2023-01-06T13:49:13;100857.28;;;14.70;71.32
12868;BME280;33517;49.866;8.320;2023-01-06T13:52:06;100861.63;;;14.49;72.15
12868;BME280;33517;49.866;8.320;2023-01-06T13:55:05;100849.03;;;14.06;73.28
12868;BME280;33517;49.866;8.320;2023-01-06T13:58:33;100878.22;;;13.67;75.12
12868;BME280;33517;49.866;8.320;2023-01-06T14:01:31;100886.50;;;13.64;75.18
12868;BME280;33517;49.866;8.320;2023-01-06T14:04:45;100870.41;;;13.43;75.62
12868;BME280;33517;49.866;8.320;2023-01-06T14:07:39;100877.69;;;13.41;75.76
12868;BME280;33517;49.866;8.320;2023-01-06T14:10:34;100879.22;;;13.35;76.75
12868;BME280;33517;49.866;8.320;2023-01-06T14:13:31;100882.06;;;13.18;77.14
12868;BME280;33517;49.866;8.320;2023-01-06T14:16:39;100881.13;;;13.11;77.84
12868;BME280;33517;49.866;8.320;2023-01-06T14:19:34;100880.47;;;12.92;78.39
12868;BME280;33517;49.866;8.320;2023-01-06T14:22:27;100891.38;;;12.81;79.14
12868;BME280;33517;49.866;8.320;2023-01-06T14:25:22;100890.06;;;12.69;79.21
12868;BME280;33517;49.866;8.320;2023-01-06T14:28:28;100895.69;;;12.66;80.32
12868;BME280;33517;49.866;8.320;2023-01-06T14:31:45;100889.09;;;12.54;80.20
12868;BME280;33517;49.866;8.320;2023-01-06T14:34:40;100894.06;;;12.41;80.96
12868;BME280;33517;49.866;8.320;2023-01-06T14:37:38;100892.25;;;12.34;80.43
12868;BME280;33517;49.866;8.320;2023-01-06T14:40:36;100899.47;;;12.24;81.31
12868;BME280;33517;49.866;8.320;2023-01-06T14:43:46;100893.38;;;12.15;82.47
12868;BME280;33517;49.866;8.320;2023-01-06T14:46:44;100887.44;;;12.05;83.55
12868;BME280;33517;49.866;8.320;2023-01-06T14:49:44;100884.59;;;11.98;82.85
12868;BME280;33517;49.866;8.320;2023-01-06T14:52:44;100881.47;;;11.95;83.54
12868;BME280;33517;49.866;8.320;2023-01-06T14:55:40;100881.44;;;11.87;83.65
12868;BME280;33517;49.866;8.320;2023-01-06T14:58:36;100887.38;;;11.81;84.95
12868;BME280;33517;49.866;8.320;2023-01-06T15:01:32;100888.03;;;11.75;85.13
12868;BME280;33517;49.866;8.320;2023-01-06T15:04:28;100891.31;;;11.69;85.29
12868;BME280;33517;49.866;8.320;2023-01-06T15:07:21;100891.63;;;11.66;85.11
12868;BME280;33517;49.866;8.320;2023-01-06T15:10:19;100909.88;;;11.59;85.69
12868;BME280;33517;49.866;8.320;2023-01-06T15:13:20;100902.25;;;11.48;86.39
12868;BME280;33517;49.866;8.320;2023-01-06T15:16:18;100913.88;;;11.38;87.34
12868;BME280;33517;49.866;8.320;2023-01-06T15:19:14;100912.66;;;11.24;87.68
12868;BME280;33517;49.866;8.320;2023-01-06T15:22:07;100920.38;;;11.18;87.94